Time;durP1;ratioP1;P1;durP2;ratioP2;P2;SDS_P1;SDS_P2;PMS_P1;PMS_P2;Temp;Humidity;BMP_temperature;BMP_pressure;BME280_temperature;BME280_humidity;BME280_pressure;Samples;Min_cycle;Max_cycle;Signal;HPM_P1;HPM_P2
2023/06/09 04:31:33;;;;;;;8.70;6.75;;;22.70;54.70;;;;;;5440988;23;20050;-83
2023/06/09 04:34:11;;;;;;;10.13;6.85;;;22.70;54.80;;;;;;4991741;28;20066;-79
2023/06/09 04:36:40;;;;;;;8.70;6.38;;;22.70;54.50;;;;;;4991287;28;20535;-80
2023/06/09 04:39:07;;;;;;;10.48;6.75;;;22.70;54.90;;;;;;4980454;28;20034;-80
2023/06/09 04:41:33;;;;;;;10.73;7.07;;;22.70;55.00;;;;;;4959244;28;20486;-80
2023/06/09 04:44:05;;;;;;;7.90;6.18;;;22.70;56.40;;;;;;5008332;28;20092;-80
2023/06/09 04:46:41;;;;;;;7.95;5.93;;;22.70;55.00;;;;;;4996318;28;20040;-79
2023/06/09 04:49:09;;;;;;;9.10;6.93;;;22.70;54.90;;;;;;5001223;28;20585;-75
2023/06/09 04:51:41;;;;;;;8.98;6.63;;;22.70;54.60;;;;;;4975174;28;20034;-77
2023/06/09 04:54:09;;;;;;;9.38;6.57;;;22.70;55.50;;;;;;4974950;28;20118;-77
2023/06/09 04:56:36;;;;;;;8.52;6.43;;;22.80;54.80;;;;;;4967042;28;20058;-77
2023/06/09 04:59:02;;;;;;;9.18;6.35;;;22.80;55.10;;;;;;4994079;28;20033;-79
2023/06/09 05:01:29;;;;;;;8.10;6.15;;;22.70;54.60;;;;;;4973373;28;20015;-78
2023/06/09 05:03:55;;;;;;;9.35;6.43;;;22.70;55.10;;;;;;4972955;28;20037;-78
2023/06/09 05:06:21;;;;;;;9.43;6.03;;;22.70;54.70;;;;;;4997251;28;20385;-78
2023/06/09 05:08:48;;;;;;;7.45;6.35;;;22.70;54.70;;;;;;4978502;28;20045;-79
2023/06/09 05:11:14;;;;;;;9.25;7.00;;;22.70;54.80;;;;;;4997579;28;20404;-78
2023/06/09 05:13:40;;;;;;;8.10;6.47;;;22.60;54.90;;;;;;4989002;28;20046;-79
2023/06/09 05:16:05;;;;;;;10.55;6.63;;;22.60;55.20;;;;;;4977951;28;20169;-78
2023/06/09 05:18:32;;;;;;;8.32;6.43;;;22.60;55.20;;;;;;4991231;28;20034;-76
2023/06/09 05:20:58;;;;;;;9.15;7.00;;;22.60;55.20;;;;;;4996957;28;20022;-78
2023/06/09 05:23:23;;;;;;;8.93;6.78;;;22.70;55.20;;;;;;4996415;28;20038;-78
2023/06/09 05:25:49;;;;;;;8.05;6.50;;;22.60;55.70;;;;;;4979418;28;20389;-78
2023/06/09 05:28:15;;;;;;;8.65;6.78;;;22.60;55.70;;;;;;4979244;28;20038;-78
2023/06/09 05:30:41;;;;;;;9.63;7.20;;;22.60;55.60;;;;;;4988056;28;20065;-78
2023/06/09 05:33:07;;;;;;;9.02;6.97;;;22.60;56.00;;;;;;4977164;28;20039;-77
2023/06/09 05:35:33;;;;;;;9.48;6.88;;;22.60;55.80;;;;;;4995678;28;20477;-77
2023/06/09 05:37:58;;;;;;;8.80;6.53;;;22.60;56.40;;;;;;4975965;28;21135;-76
2023/06/09 05:40:24;;;;;;;9.10;6.80;;;22.60;56.20;;;;;;4977377;28;20031;-77
2023/06/09 05:42:50;;;;;;;9.73;6.95;;;22.60;56.70;;;;;;4986197;28;20018;-77
2023/06/09 05:45:15;;;;;;;9.52;7.05;;;22.60;57.40;;;;;;4997110;28;20411;-77
2023/06/09 05:47:41;;;;;;;9.35;6.68;;;22.60;57.90;;;;;;4976385;28;20031;-78
2023/06/09 05:50:08;;;;;;;8.90;6.60;;;22.50;57.60;;;;;;4976554;28;20057;-77
2023/06/09 05:52:33;;;;;;;8.68;7.60;;;22.50;57.70;;;;;;4977928;28;20035;-76
2023/06/09 05:55:00;;;;;;;9.75;7.28;;;22.60;58.90;;;;;;4989517;28;20078;-76
2023/06/09 05:57:29;;;;;;;9.90;7.32;;;22.50;58.20;;;;;;4979177;28;20031;-76
2023/06/09 05:59:56;;;;;;;9.23;7.68;;;22.50;58.20;;;;;;4986353;28;20485;-76
2023/06/09 06:02:23;;;;;;;8.93;7.15;;;22.40;59.90;;;;;;4977143;28;20382;-76
2023/06/09 06:04:49;;;;;;;11.40;7.65;;;22.40;60.00;;;;;;4960097;28;20124;-76
2023/06/09 06:07:16;;;;;;;10.10;7.65;;;22.40;59.70;;;;;;4981446;28;20122;-77
2023/06/09 06:09:41;;;;;;;9.57;7.75;;;22.40;60.10;;;;;;5014167;28;20084;-77
2023/06/09 06:12:07;;;;;;;9.98;7.47;;;22.40;59.50;;;;;;4974497;28;20035;-77
2023/06/09 06:14:33;;;;;;;10.68;7.53;;;22.50;61.60;;;;;;4994425;28;20023;-79
2023/06/09 06:16:58;;;;;;;10.07;7.95;;;22.50;60.30;;;;;;4983806;28;20127;-78
2023/06/09 06:19:24;;;;;;;9.90;8.00;;;22.40;61.00;;;;;;4989407;28;20026;-78
2023/06/09 06:21:50;;;;;;;9.65;7.63;;;22.40;61.00;;;;;;4996257;28;20026;-78
2023/06/09 06:24:16;;;;;;;10.02;7.72;;;22.40;61.30;;;;;;4966547;28;20503;-78
2023/06/09 06:26:41;;;;;;;10.10;8.18;;;22.40;61.40;;;;;;4975107;28;20481;-77
2023/06/09 06:29:07;;;;;;;12.40;8.55;;;22.30;63.10;;;;;;4981827;28;20070;-78
2023/06/09 06:31:32;;;;;;;9.68;7.88;;;22.20;62.70;;;;;;4981970;28;20054;-78
2023/06/09 06:33:59;;;;;;;10.50;8.20;;;22.20;64.20;;;;;;4993530;28;20117;-77
2023/06/09 06:36:26;;;;;;;8.70;7.80;;;22.20;63.50;;;;;;4985345;28;20031;-78
2023/06/09 06:38:51;;;;;;;10.60;8.60;;;22.20;63.80;;;;;;4987398;28;20027;-78
2023/06/09 06:41:17;;;;;;;10.10;8.68;;;22.20;63.50;;;;;;4983495;28;21672;-78
2023/06/09 06:43:43;;;;;;;10.57;8.25;;;22.20;63.90;;;;;;4983479;28;20026;-78
2023/06/09 06:46:12;;;;;;;10.32;8.63;;;22.20;64.40;;;;;;4994603;28;20090;-78
2023/06/09 06:48:39;;;;;;;10.65;9.13;;;22.10;64.20;;;;;;4978038;28;20022;-78
2023/06/09 06:51:07;;;;;;;12.23;9.00;;;22.00;65.10;;;;;;4986853;28;20054;-77
2023/06/09 06:53:33;;;;;;;11.02;9.07;;;22.00;65.00;;;;;;4990784;28;20045;-79
2023/06/09 06:55:59;;;;;;;11.80;8.90;;;22.00;64.70;;;;;;5015644;28;20021;-80
2023/06/09 06:58:27;;;;;;;11.80;9.05;;;22.00;64.80;;;;;;4976974;28;20033;-79
2023/06/09 07:00:56;;;;;;;10.90;8.80;;;22.00;66.00;;;;;;4969885;28;20039;-82
2023/06/09 07:03:26;;;;;;;10.43;8.93;;;22.10;65.20;;;;;;4984295;28;20054;-79
2023/06/09 07:05:52;;;;;;;11.68;8.85;;;22.20;65.50;;;;;;4992979;28;20026;-79
2023/06/09 07:08:18;;;;;;;12.85;9.35;;;22.30;64.90;;;;;;4977852;28;20077;-79
2023/06/09 07:10:43;;;;;;;10.27;9.02;;;22.30;64.80;;;;;;4980930;28;20037;-79
2023/06/09 07:13:09;;;;;;;11.70;9.55;;;22.50;64.00;;;;;;4982625;28;20022;-79
2023/06/09 07:15:36;;;;;;;10.73;9.50;;;22.50;64.90;;;;;;4987072;28;20575;-79
2023/06/09 07:18:03;;;;;;;11.68;9.43;;;22.50;65.60;;;;;;4990799;28;20412;-79
2023/06/09 07:20:29;;;;;;;11.93;9.25;;;22.60;65.20;;;;;;4983885;28;20049;-78
2023/06/09 07:22:54;;;;;;;11.40;9.50;;;22.70;65.70;;;;;;4983263;28;20030;-80
2023/06/09 07:25:20;;;;;;;11.13;9.55;;;22.70;65.00;;;;;;4983065;28;20428;-78
2023/06/09 07:27:46;;;;;;;10.98;9.80;;;22.80;65.50;;;;;;4981418;28;20022;-78
2023/06/09 07:30:12;;;;;;;11.55;9.90;;;22.80;65.10;;;;;;4977273;28;20062;-78
2023/06/09 07:32:39;;;;;;;10.43;9.32;;;22.80;65.10;;;;;;4989257;28;20029;-78
2023/06/09 07:35:05;;;;;;;11.82;9.70;;;22.90;65.00;;;;;;4988212;28;20122;-78
2023/06/09 07:37:31;;;;;;;11.55;9.50;;;22.90;65.30;;;;;;4989201;28;20046;-78
2023/06/09 07:39:57;;;;;;;12.07;9.50;;;23.00;64.70;;;;;;4986114;28;20030;-78
2023/06/09 07:42:23;;;;;;;11.55;9.80;;;23.00;64.50;;;;;;4989075;28;20030;-79
2023/06/09 07:44:48;;;;;;;10.80;9.27;;;22.90;64.90;;;;;;4972168;28;20496;-79
2023/06/09 07:47:14;;;;;;;12.27;9.70;;;23.00;64.70;;;;;;4995210;28;20034;-80
2023/06/09 07:49:40;;;;;;;12.13;9.57;;;23.00;65.80;;;;;;4987091;28;20034;-79
2023/06/09 07:52:06;;;;;;;12.68;10.10;;;23.10;65.30;;;;;;4975397;28;20036;-79
2023/06/09 07:54:32;;;;;;;12.88;10.38;;;23.20;67.20;;;;;;4985108;28;20027;-79
2023/06/09 07:56:58;;;;;;;12.52;10.20;;;23.30;65.20;;;;;;4990518;28;20026;-79
2023/06/09 07:59:24;;;;;;;12.38;9.43;;;23.30;64.90;;;;;;4988966;28;20081;-79
2023/06/09 08:01:49;;;;;;;11.52;9.90;;;23.30;65.60;;;;;;4989668;28;20437;-79
2023/06/09 08:04:15;;;;;;;11.77;9.25;;;23.30;66.10;;;;;;4987801;28;20031;-79
2023/06/09 08:06:41;;;;;;;10.45;9.18;;;23.20;65.80;;;;;;4989792;28;20026;-80
2023/06/09 08:09:08;;;;;;;10.88;9.15;;;23.30;64.70;;;;;;4989997;28;20068;-79
2023/06/09 08:11:34;;;;;;;10.32;8.95;;;23.20;64.10;;;;;;4989600;28;20041;-79
2023/06/09 08:14:00;;;;;;;10.10;8.60;;;23.20;64.20;;;;;;4987227;28;20026;-80
2023/06/09 08:16:25;;;;;;;11.80;9.35;;;23.20;66.10;;;;;;4982740;28;20029;-79
2023/06/09 08:18:51;;;;;;;10.40;8.70;;;23.20;63.90;;;;;;4995093;28;20041;-80
2023/06/09 08:21:17;;;;;;;11.60;9.73;;;23.30;64.10;;;;;;4986586;28;20185;-80
2023/06/09 08:23:43;;;;;;;9.50;8.55;;;23.40;63.10;;;;;;4987617;28;20038;-80
2023/06/09 08:26:10;;;;;;;9.63;8.63;;;23.40;63.50;;;;;;4977796;28;20058;-80
2023/06/09 08:28:36;;;;;;;12.20;8.63;;;23.40;62.20;;;;;;4988276;28;20509;-80
2023/06/09 08:31:03;;;;;;;9.90;8.10;;;23.40;62.20;;;;;;4986499;28;20050;-80
2023/06/09 08:33:33;;;;;;;10.60;8.80;;;23.60;61.40;;;;;;4985132;28;20023;-80
2023/06/09 08:36:04;;;;;;;10.50;8.68;;;23.70;61.80;;;;;;4987946;28;20034;-80
2023/06/09 08:38:33;;;;;;;11.68;8.93;;;24.10;61.10;;;;;;4986828;28;20018;-80
2023/06/09 08:41:06;;;;;;;10.23;8.50;;;24.80;59.50;;;;;;4996005;28;20141;-80
2023/06/09 08:43:31;;;;;;;;;;;25.60;58.10;;;;;;4985944;28;20030;-80
2023/06/09 08:46:00;;;;;;;10.07;8.95;;;26.00;55.60;;;;;;4983401;28;19910;-80
2023/06/09 08:48:30;;;;;;;10.10;8.60;;;27.50;53.50;;;;;;4986232;28;20027;-81
2023/06/09 08:50:57;;;;;;;9.80;8.80;;;27.80;51.00;;;;;;4991431;28;20027;-81
2023/06/09 08:53:25;;;;;;;10.02;9.02;;;28.20;51.00;;;;;;4987451;28;20112;-81
2023/06/09 08:55:52;;;;;;;9.85;8.20;;;27.90;51.90;;;;;;4986916;28;20039;-81
2023/06/09 08:58:19;;;;;;;9.85;8.73;;;27.60;52.20;;;;;;4989625;28;20030;-81
2023/06/09 09:00:47;;;;;;;9.98;8.88;;;27.80;51.50;;;;;;4987949;28;20019;-81
2023/06/09 09:03:13;;;;;;;8.70;7.85;;;28.00;50.80;;;;;;4969691;28;20042;-81
2023/06/09 09:05:38;;;;;;;9.50;8.18;;;28.10;50.00;;;;;;4975484;28;20053;-82
2023/06/09 09:08:04;;;;;;;9.43;8.43;;;28.20;50.80;;;;;;4986107;28;20952;-82
2023/06/09 09:10:31;;;;;;;9.90;7.78;;;28.00;51.00;;;;;;4972542;28;20023;-81
2023/06/09 09:12:58;;;;;;;8.85;7.95;;;27.90;50.40;;;;;;4978308;28;20137;-82
2023/06/09 09:15:25;;;;;;;8.75;7.80;;;27.80;50.70;;;;;;4986598;28;20526;-81
2023/06/09 09:17:51;;;;;;;8.88;7.53;;;27.60;51.50;;;;;;4998500;28;20030;-81
2023/06/09 09:20:17;;;;;;;11.00;7.95;;;27.30;49.70;;;;;;4987424;28;20402;-82
2023/06/09 09:22:50;;;;;;;8.95;7.68;;;27.20;51.40;;;;;;4996451;28;20104;-81
2023/06/09 09:25:27;;;;;;;9.18;8.25;;;27.30;51.60;;;;;;4993788;28;20122;-81
2023/06/09 09:28:00;;;;;;;9.30;7.60;;;27.10;51.10;;;;;;4987874;28;20037;-81
2023/06/09 09:30:48;;;;;;;10.70;7.93;;;27.10;51.50;;;;;;4991865;28;20050;-83
2023/06/09 09:33:27;;;;;;;9.00;8.10;;;27.10;50.60;;;;;;5006686;28;20157;-81
2023/06/09 09:35:59;;;;;;;11.07;7.95;;;26.80;51.20;;;;;;4980223;28;20041;-81
2023/06/09 09:38:26;;;;;;;9.77;7.72;;;26.40;52.00;;;;;;5006473;28;20105;-81
2023/06/09 09:40:56;;;;;;;9.38;7.78;;;26.30;53.10;;;;;;4990006;28;20488;-81
2023/06/09 09:43:25;;;;;;;10.15;7.70;;;26.20;52.80;;;;;;4993710;28;20140;-81
2023/06/09 09:45:53;;;;;;;10.13;7.82;;;25.90;53.20;;;;;;4987209;28;20026;-81
2023/06/09 09:48:22;;;;;;;9.23;7.65;;;25.80;53.20;;;;;;5009846;28;20404;-81
2023/06/09 09:50:48;;;;;;;8.73;7.75;;;25.80;52.90;;;;;;5001654;28;20429;-81
2023/06/09 09:53:15;;;;;;;9.23;7.85;;;25.80;53.00;;;;;;4991630;28;20485;-81
2023/06/09 09:55:45;;;;;;;11.57;8.18;;;25.90;53.60;;;;;;4999040;28;20084;-81
2023/06/09 09:58:12;;;;;;;9.23;7.97;;;26.00;53.70;;;;;;5007566;28;20025;-81
2023/06/09 10:00:40;;;;;;;9.27;8.32;;;26.10;52.70;;;;;;4979740;28;20467;-81
2023/06/09 10:03:08;;;;;;;9.35;8.10;;;26.20;53.50;;;;;;5000944;28;20022;-83
2023/06/09 10:05:38;;;;;;;10.65;8.05;;;26.20;53.50;;;;;;4989154;28;20564;-82
2023/06/09 10:08:05;;;;;;;8.82;7.93;;;26.20;53.70;;;;;;4988748;28;20484;-83
2023/06/09 10:10:32;;;;;;;10.43;8.57;;;26.20;54.00;;;;;;4988500;28;20031;-83
2023/06/09 10:13:00;;;;;;;9.75;8.18;;;26.30;53.60;;;;;;4984685;28;20028;-83
2023/06/09 10:15:26;;;;;;;10.48;7.93;;;26.20;53.60;;;;;;4987828;28;20034;-82
2023/06/09 10:17:54;;;;;;;10.35;7.93;;;26.40;54.50;;;;;;4991560;28;20089;-84
2023/06/09 10:20:20;;;;;;;10.02;7.97;;;26.60;53.80;;;;;;4983389;28;20854;-84
2023/06/09 10:22:47;;;;;;;9.65;8.18;;;26.70;53.10;;;;;;4972351;28;20106;-83
2023/06/09 10:25:13;;;;;;;9.05;7.70;;;26.80;53.80;;;;;;4995432;28;20552;-80
2023/06/09 10:27:40;;;;;;;9.63;7.78;;;26.80;53.30;;;;;;4992631;28;20026;-77
2023/06/09 10:30:09;;;;;;;10.60;8.15;;;26.80;52.90;;;;;;4996124;28;20077;-78
2023/06/09 10:32:46;;;;;;;11.27;8.20;;;26.90;52.30;;;;;;4978882;28;20102;-79
2023/06/09 10:35:13;;;;;;;9.35;7.97;;;27.00;51.10;;;;;;4979297;28;20026;-79
2023/06/09 10:37:41;;;;;;;11.18;7.82;;;27.00;50.50;;;;;;4989993;28;20027;-79
2023/06/09 10:40:09;;;;;;;8.95;8.02;;;27.20;51.70;;;;;;4981434;28;20023;-78
2023/06/09 10:42:54;;;;;;;11.27;8.00;;;27.30;50.00;;;;;;4978447;28;20026;-79
2023/06/09 10:45:20;;;;;;;11.52;7.82;;;27.50;50.60;;;;;;4969322;28;20412;-79
2023/06/09 10:47:48;;;;;;;12.07;7.97;;;27.70;50.40;;;;;;4980013;28;20037;-77
2023/06/09 10:50:24;;;;;;;9.35;8.13;;;27.70;50.30;;;;;;4978245;28;20054;-78
2023/06/09 10:52:54;;;;;;;10.32;8.43;;;27.60;51.10;;;;;;4991007;28;20026;-79
2023/06/09 10:55:24;;;;;;;10.43;8.10;;;27.40;50.70;;;;;;4987630;28;20086;-79
2023/06/09 10:57:51;;;;;;;9.13;8.07;;;27.10;52.30;;;;;;4978367;28;20065;-79
2023/06/09 11:00:18;;;;;;;11.23;8.10;;;26.90;51.40;;;;;;4978475;28;20097;-78
2023/06/09 11:02:50;;;;;;;13.75;9.38;;;26.80;52.30;;;;;;4988108;28;20856;-78
2023/06/09 11:05:17;;;;;;;10.82;8.23;;;26.90;52.40;;;;;;4985896;28;20037;-79
2023/06/09 11:07:51;;;;;;;12.48;8.50;;;27.00;53.20;;;;;;5000010;28;20496;-79
2023/06/09 11:10:20;;;;;;;9.40;7.97;;;27.20;53.60;;;;;;4982243;28;20022;-79
2023/06/09 11:12:46;;;;;;;10.90;8.45;;;27.40;54.10;;;;;;5006142;28;20030;-80
2023/06/09 11:15:15;;;;;;;10.23;8.50;;;27.70;52.80;;;;;;5019507;28;20538;-79
2023/06/09 11:17:45;;;;;;;10.63;8.07;;;28.10;51.30;;;;;;5019692;28;20026;-79
2023/06/09 11:20:15;;;;;;;9.98;8.40;;;28.10;52.30;;;;;;5001138;28;20018;-78
2023/06/09 11:22:41;;;;;;;10.38;8.43;;;28.30;50.80;;;;;;4988362;28;20183;-77
2023/06/09 11:25:08;;;;;;;9.50;8.55;;;28.30;50.60;;;;;;4977512;28;20058;-78
2023/06/09 11:27:34;;;;;;;10.75;8.80;;;28.50;50.00;;;;;;4980154;28;20077;-78
2023/06/09 11:30:11;;;;;;;9.57;8.48;;;28.70;51.00;;;;;;4989161;28;20501;-78
2023/06/09 11:32:47;;;;;;;9.90;8.50;;;29.00;48.90;;;;;;4996434;28;20413;-78
2023/06/09 11:35:28;;;;;;;9.75;8.63;;;29.20;49.20;;;;;;4987091;28;20037;-77
2023/06/09 11:37:56;;;;;;;10.05;8.57;;;29.40;49.50;;;;;;4985358;28;20804;-77
2023/06/09 11:40:22;;;;;;;13.10;9.18;;;29.30;48.60;;;;;;4987940;28;20026;-77
2023/06/09 11:42:48;;;;;;;10.07;8.65;;;29.20;49.50;;;;;;4989093;28;20098;-77
2023/06/09 11:45:14;;;;;;;9.82;8.43;;;29.00;48.60;;;;;;4986481;28;20034;-77
2023/06/09 11:47:41;;;;;;;10.82;7.82;;;28.90;50.20;;;;;;4978332;28;20023;-77
2023/06/09 11:50:11;;;;;;;9.07;8.05;;;28.80;49.90;;;;;;4989466;28;20023;-77
2023/06/09 11:52:38;;;;;;;10.60;7.72;;;29.00;50.10;;;;;;4970630;28;20109;-77
2023/06/09 11:55:05;;;;;;;9.68;8.43;;;29.10;49.80;;;;;;4987149;28;20041;-77
2023/06/09 11:57:32;;;;;;;9.15;8.10;;;29.40;51.00;;;;;;4983559;28;20026;-77
2023/06/09 11:59:58;;;;;;;9.95;8.23;;;29.80;49.80;;;;;;4988018;28;20102;-77
2023/06/09 12:02:25;;;;;;;10.23;7.78;;;29.90;49.40;;;;;;4990783;28;20026;-77
2023/06/09 12:04:51;;;;;;;8.77;7.88;;;30.10;49.30;;;;;;5004020;28;20034;-77
2023/06/09 12:07:18;;;;;;;9.05;7.50;;;30.00;49.10;;;;;;4997139;28;20029;-77
2023/06/09 12:09:44;;;;;;;9.30;7.68;;;29.80;46.90;;;;;;4977921;28;20178;-77
2023/06/09 12:12:10;;;;;;;8.38;7.45;;;29.70;48.50;;;;;;4972506;28;20578;-77
2023/06/09 12:14:37;;;;;;;9.55;7.45;;;29.40;49.30;;;;;;4979761;28;20481;-77
2023/06/09 12:17:03;;;;;;;7.90;7.07;;;29.20;49.20;;;;;;4998531;28;20165;-77
2023/06/09 12:19:29;;;;;;;9.15;8.25;;;29.30;50.30;;;;;;5013550;28;20070;-77
2023/06/09 12:21:55;;;;;;;8.95;7.35;;;29.10;49.20;;;;;;4983166;28;20041;-77
2023/06/09 12:24:21;;;;;;;8.90;7.45;;;29.10;50.20;;;;;;5001929;28;20030;-77
2023/06/09 12:26:50;;;;;;;9.70;7.68;;;29.30;50.90;;;;;;4980728;28;20022;-77
2023/06/09 12:29:23;;;;;;;8.50;7.63;;;29.70;50.70;;;;;;4998096;28;20026;-77
2023/06/09 12:31:49;;;;;;;10.88;7.30;;;30.10;50.50;;;;;;4996674;28;20046;-77
2023/06/09 12:34:29;;;;;;;11.43;8.70;;;30.20;48.10;;;;;;4997323;28;20547;-77
2023/06/09 12:36:56;;;;;;;8.38;7.03;;;30.00;48.20;;;;;;4998331;28;20026;-77
2023/06/09 12:39:23;;;;;;;10.65;7.45;;;29.70;48.80;;;;;;4979495;28;20034;-77
2023/06/09 12:41:49;;;;;;;9.02;7.40;;;29.10;48.70;;;;;;4979893;28;20066;-77
2023/06/09 12:44:23;;;;;;;9.35;8.35;;;28.90;50.40;;;;;;4981157;28;20058;-77
2023/06/09 12:46:55;;;;;;;9.35;8.43;;;28.40;51.30;;;;;;4997405;28;20053;-77
2023/06/09 12:49:31;;;;;;;11.57;8.37;;;27.90;52.30;;;;;;4997094;28;20022;-77
2023/06/09 12:52:01;;;;;;;13.23;11.70;;;27.50;55.60;;;;;;4980602;28;20070;-77
2023/06/09 12:54:28;;;;;;;19.20;14.23;;;26.70;62.20;;;;;;4978105;28;20026;-77
2023/06/09 12:56:55;;;;;;;18.50;12.38;;;25.80;67.80;;;;;;4979047;28;20433;-77
2023/06/09 12:59:22;;;;;;;30.23;16.58;;;25.20;69.00;;;;;;4983902;28;20097;-77
2023/06/09 13:01:48;;;;;;;19.17;12.90;;;24.80;70.70;;;;;;4988632;28;20440;-77
2023/06/09 13:04:18;;;;;;;16.90;11.60;;;24.60;70.70;;;;;;4989126;28;20113;-77
2023/06/09 13:06:43;;;;;;;23.80;14.55;;;24.30;72.40;;;;;;4996515;28;20457;-76
2023/06/09 13:09:09;;;;;;;24.40;13.70;;;24.10;73.20;;;;;;4966792;28;20057;-77
2023/06/09 13:11:36;;;;;;;33.75;15.73;;;24.10;73.40;;;;;;4983637;28;20047;-77
2023/06/09 13:14:02;;;;;;;17.02;11.60;;;24.20;73.70;;;;;;4978094;28;20027;-77
2023/06/09 13:16:28;;;;;;;20.90;12.30;;;23.90;79.60;;;;;;4970830;28;20037;-76
2023/06/09 13:18:53;;;;;;;22.88;12.80;;;23.80;76.50;;;;;;4980062;28;20030;-77
2023/06/09 13:21:19;;;;;;;17.33;11.43;;;23.70;76.10;;;;;;4997220;28;20037;-77
2023/06/09 13:23:45;;;;;;;19.17;11.98;;;23.70;75.10;;;;;;4978826;28;20037;-77
2023/06/09 13:26:11;;;;;;;16.80;11.27;;;23.50;74.30;;;;;;4996453;28;20030;-76
2023/06/09 13:28:36;;;;;;;14.80;11.38;;;23.30;76.20;;;;;;4996823;28;20038;-76
2023/06/09 13:31:02;;;;;;;18.55;12.23;;;23.10;77.10;;;;;;4979551;28;20046;-76
2023/06/09 13:33:28;;;;;;;27.38;14.07;;;23.00;79.00;;;;;;4979188;28;20562;-76
2023/06/09 13:35:54;;;;;;;29.45;15.70;;;22.90;80.10;;;;;;4979671;28;20022;-76
2023/06/09 13:38:20;;;;;;;26.17;15.75;;;22.90;80.30;;;;;;4997435;28;20081;-76
2023/06/09 13:40:47;;;;;;;27.58;15.98;;;23.10;79.90;;;;;;4978623;28;20034;-76
2023/06/09 13:43:14;;;;;;;26.02;15.73;;;23.30;79.60;;;;;;5005057;28;20801;-76
2023/06/09 13:45:39;;;;;;;35.53;16.08;;;23.40;78.70;;;;;;5016451;28;20030;-76
2023/06/09 13:48:06;;;;;;;26.40;14.50;;;23.50;77.70;;;;;;4999213;28;20038;-76
2023/06/09 13:50:32;;;;;;;27.38;15.68;;;23.50;77.80;;;;;;4959729;28;20018;-76
2023/06/09 13:52:58;;;;;;;21.48;15.02;;;23.60;77.70;;;;;;4977567;28;20029;-76
2023/06/09 13:55:24;;;;;;;30.15;16.13;;;23.60;77.20;;;;;;4959847;28;20035;-76
2023/06/09 13:57:50;;;;;;;25.60;14.52;;;23.70;76.70;;;;;;4979993;28;20045;-77
2023/06/09 14:00:16;;;;;;;24.52;14.90;;;23.70;77.30;;;;;;4979066;28;20030;-76
2023/06/09 14:02:42;;;;;;;42.63;15.07;;;23.60;78.20;;;;;;4996807;28;20034;-75
2023/06/09 14:05:10;;;;;;;32.58;14.65;;;23.40;82.60;;;;;;4994412;28;20023;-76
2023/06/09 14:07:37;;;;;;;27.17;14.25;;;23.10;83.80;;;;;;4996142;28;20018;-76
2023/06/09 14:10:03;;;;;;;28.98;14.25;;;22.90;83.60;;;;;;4995356;28;20109;-76
2023/06/09 14:12:30;;;;;;;21.80;12.05;;;23.00;82.70;;;;;;4996602;28;20033;-75
2023/06/09 14:14:55;;;;;;;15.27;10.48;;;22.90;81.50;;;;;;4978604;28;20081;-76
2023/06/09 14:17:21;;;;;;;13.35;8.20;;;22.90;79.40;;;;;;4985970;28;20035;-75
2023/06/09 14:19:47;;;;;;;10.48;6.95;;;22.80;78.40;;;;;;4970293;28;20030;-77
2023/06/09 14:22:12;;;;;;;13.32;7.93;;;22.40;78.10;;;;;;4991075;28;20447;-77
2023/06/09 14:24:38;;;;;;;17.27;10.02;;;22.30;79.20;;;;;;4996325;28;20113;-77
2023/06/09 14:27:05;;;;;;;11.43;8.55;;;22.30;80.10;;;;;;4996474;28;20037;-76
2023/06/09 14:29:32;;;;;;;27.60;10.98;;;22.20;80.60;;;;;;4989428;28;20034;-77
2023/06/09 14:32:02;;;;;;;21.63;10.95;;;22.30;81.70;;;;;;4976748;28;20097;-76
2023/06/09 14:34:27;;;;;;;15.57;9.10;;;22.20;82.80;;;;;;4959066;28;20053;-77
2023/06/09 14:36:53;;;;;;;17.60;10.15;;;22.20;81.00;;;;;;4959510;28;20035;-76
2023/06/09 14:39:19;;;;;;;16.50;10.20;;;22.30;82.40;;;;;;4978492;28;20042;-76
2023/06/09 14:41:48;;;;;;;18.95;10.43;;;22.30;82.10;;;;;;4977802;28;20378;-77
2023/06/09 14:44:17;;;;;;;16.08;9.82;;;22.50;80.80;;;;;;5009932;28;20037;-78
2023/06/09 14:46:44;;;;;;;13.63;9.10;;;22.50;80.20;;;;;;5015399;28;20097;-78
2023/06/09 14:49:09;;;;;;;16.17;10.23;;;22.60;80.20;;;;;;4978688;28;20124;-78
2023/06/09 14:51:36;;;;;;;11.93;8.27;;;22.60;79.90;;;;;;4986977;28;20493;-78
2023/06/09 14:54:02;;;;;;;13.73;8.65;;;22.50;80.20;;;;;;5013486;28;20041;-78
2023/06/09 14:56:28;;;;;;;14.40;8.32;;;22.60;79.70;;;;;;4989110;28;20030;-78
2023/06/09 14:58:54;;;;;;;13.00;7.43;;;22.50;79.60;;;;;;4985297;28;20114;-78
2023/06/09 15:01:20;;;;;;;13.68;8.23;;;22.60;78.20;;;;;;4979646;28;20105;-78
2023/06/09 15:03:45;;;;;;;13.57;7.57;;;22.50;79.20;;;;;;4976367;28;20038;-78
2023/06/09 15:06:11;;;;;;;13.63;7.47;;;22.50;79.40;;;;;;4992685;28;20505;-78
2023/06/09 15:08:38;;;;;;;12.93;7.18;;;22.50;79.20;;;;;;4995771;28;20040;-78
2023/06/09 15:11:04;;;;;;;11.27;6.45;;;22.40;79.70;;;;;;4984666;28;20034;-77
2023/06/09 15:13:30;;;;;;;12.25;6.95;;;22.50;79.70;;;;;;4976431;28;20035;-77
2023/06/09 15:15:56;;;;;;;10.70;6.85;;;22.50;79.20;;;;;;4990091;28;20458;-78
2023/06/09 15:18:21;;;;;;;10.52;6.88;;;22.50;79.10;;;;;;4992980;28;20695;-77
2023/06/09 15:20:47;;;;;;;14.93;7.40;;;22.40;78.40;;;;;;5013146;28;20097;-77
2023/06/09 15:23:13;;;;;;;12.20;7.45;;;22.30;79.40;;;;;;5009725;28;20022;-77
2023/06/09 15:25:39;;;;;;;14.98;7.10;;;22.30;79.00;;;;;;5000829;28;20392;-77
2023/06/09 15:28:11;;;;;;;11.15;6.78;;;22.40;79.40;;;;;;4977889;28;20026;-78
2023/06/09 15:30:54;;;;;;;12.60;7.13;;;22.30;79.40;;;;;;5005684;28;20053;-77
2023/06/09 15:33:21;;;;;;;12.05;7.18;;;22.30;79.70;;;;;;4981747;28;20510;-78
2023/06/09 15:35:49;;;;;;;11.20;7.03;;;22.30;79.80;;;;;;4976431;28;20035;-78
2023/06/09 15:38:17;;;;;;;13.95;7.65;;;22.30;79.70;;;;;;4978176;28;20030;-77
2023/06/09 15:40:44;;;;;;;12.43;7.68;;;22.30;79.70;;;;;;4993973;28;20023;-78
2023/06/09 15:43:12;;;;;;;16.17;8.50;;;22.30;79.80;;;;;;4998339;28;20033;-77
2023/06/09 15:45:45;;;;;;;11.95;7.85;;;22.20;80.40;;;;;;4987187;28;20077;-78
2023/06/09 15:48:12;;;;;;;14.05;7.90;;;22.20;80.00;;;;;;4978007;28;20022;-78
2023/06/09 15:50:39;;;;;;;12.70;8.35;;;22.20;79.80;;;;;;4993606;28;20035;-76
2023/06/09 15:53:06;;;;;;;15.85;7.70;;;22.30;80.40;;;;;;4983248;28;20039;-78
2023/06/09 15:55:32;;;;;;;9.68;6.68;;;22.30;79.90;;;;;;4983358;28;20038;-78
2023/06/09 15:58:00;;;;;;;11.68;6.75;;;22.30;79.50;;;;;;4987157;28;20022;-78
2023/06/09 16:00:28;;;;;;;11.20;6.80;;;22.20;79.50;;;;;;4993412;28;20505;-78
2023/06/09 16:02:54;;;;;;;11.02;6.43;;;22.20;79.90;;;;;;4964339;28;20038;-78
2023/06/09 16:05:20;;;;;;;14.35;7.38;;;22.10;80.20;;;;;;4989278;28;20489;-78
2023/06/09 16:07:45;;;;;;;10.68;6.75;;;22.10;79.90;;;;;;4976689;28;20649;-78
2023/06/09 16:10:11;;;;;;;12.18;7.82;;;22.30;80.40;;;;;;4990281;28;20035;-78
2023/06/09 16:12:37;;;;;;;11.73;7.30;;;22.20;80.20;;;;;;4980673;28;20023;-78
2023/06/09 16:15:03;;;;;;;11.60;7.47;;;22.30;79.70;;;;;;4985297;28;20033;-78
2023/06/09 16:17:28;;;;;;;9.23;7.15;;;22.30;79.80;;;;;;4990669;28;20481;-78
2023/06/09 16:19:56;;;;;;;12.30;6.70;;;22.20;79.70;;;;;;4968298;28;20037;-78
2023/06/09 16:22:24;;;;;;;11.93;7.20;;;22.30;79.40;;;;;;4970633;28;20034;-77
2023/06/09 16:24:50;;;;;;;11.52;7.13;;;22.20;79.90;;;;;;4973804;28;20053;-77
2023/06/09 16:27:16;;;;;;;11.10;6.88;;;22.10;79.90;;;;;;4988364;28;20035;-77
2023/06/09 16:29:42;;;;;;;11.75;6.72;;;22.10;79.90;;;;;;4994289;28;20577;-77
2023/06/09 16:32:07;;;;;;;9.48;6.60;;;22.10;80.40;;;;;;4976783;28;20150;-77
2023/06/09 16:34:33;;;;;;;11.52;6.55;;;22.10;79.80;;;;;;4995139;28;20030;-77
2023/06/09 16:36:59;;;;;;;11.18;6.47;;;22.00;79.60;;;;;;4997802;28;20460;-77
2023/06/09 16:39:24;;;;;;;11.88;6.85;;;21.90;80.40;;;;;;4980146;28;20041;-77
2023/06/09 16:41:50;;;;;;;9.77;6.28;;;22.00;80.10;;;;;;4997025;28;20057;-78
2023/06/09 16:44:17;;;;;;;11.27;6.88;;;21.90;80.00;;;;;;5013544;28;20036;-79
2023/06/09 16:46:43;;;;;;;10.73;6.72;;;22.00;80.50;;;;;;4994977;28;20030;-78
2023/06/09 16:49:08;;;;;;;10.00;6.32;;;22.00;80.20;;;;;;4990675;28;20485;-78
2023/06/09 16:51:34;;;;;;;10.80;6.78;;;22.10;79.90;;;;;;4988950;28;20042;-78
2023/06/09 16:53:59;;;;;;;11.07;6.72;;;22.20;79.80;;;;;;4995898;28;20084;-78
2023/06/09 16:56:25;;;;;;;19.25;14.48;;;22.10;80.00;;;;;;4975391;28;20066;-78
2023/06/09 16:58:51;;;;;;;31.08;25.33;;;22.20;79.80;;;;;;4992576;28;20030;-78
2023/06/09 17:01:17;;;;;;;30.58;23.77;;;22.30;79.60;;;;;;4996653;28;20031;-78
2023/06/09 17:03:42;;;;;;;18.13;10.95;;;22.30;79.50;;;;;;4997404;28;20396;-76
2023/06/09 17:06:08;;;;;;;12.25;7.38;;;22.20;79.70;;;;;;4994849;28;20026;-78
2023/06/09 17:08:34;;;;;;;10.02;6.30;;;22.20;79.90;;;;;;4968838;28;20022;-77